createdAt,value
2023-02-02T00:01:25.545Z,22.80
2023-02-02T00:03:53.971Z,20.60
2023-02-02T00:06:24.933Z,19.15
2023-02-02T00:08:52.952Z,19.48
2023-02-02T00:11:21.188Z,17.27
2023-02-02T00:13:48.944Z,19.58
2023-02-02T00:16:39.110Z,13.55
2023-02-02T00:19:09.014Z,22.40
2023-02-02T00:21:39.160Z,19.08
2023-02-02T00:24:08.183Z,18.48
2023-02-02T00:26:36.456Z,18.77
2023-02-02T00:29:05.386Z,17.05
2023-02-02T00:31:33.177Z,23.27
2023-02-02T00:34:01.330Z,22.45
2023-02-02T00:36:29.719Z,20.00
2023-02-02T00:38:58.763Z,24.20
2023-02-02T00:41:26.463Z,26.17
2023-02-02T00:44:08.447Z,20.30
2023-02-02T00:46:39.632Z,25.05
2023-02-02T00:49:07.449Z,18.02
2023-02-02T00:51:35.415Z,21.48
2023-02-02T00:54:05.268Z,15.63
2023-02-02T00:56:33.085Z,19.02
2023-02-02T00:59:00.794Z,14.10
2023-02-02T01:01:28.649Z,19.23
2023-02-02T01:03:56.440Z,28.45
2023-02-02T01:06:24.321Z,23.30
2023-02-02T01:08:52.082Z,29.48
2023-02-02T01:11:21.847Z,11.25
2023-02-02T01:13:49.582Z,23.35
2023-02-02T01:16:17.312Z,21.80
2023-02-02T01:18:45.070Z,14.48
2023-02-02T01:21:13.898Z,16.73
2023-02-02T01:23:41.649Z,22.67
2023-02-02T01:26:12.057Z,24.75
2023-02-02T01:28:41.391Z,20.10
2023-02-02T01:31:12.426Z,21.90
2023-02-02T01:33:41.129Z,13.05
2023-02-02T01:36:11.997Z,19.30
2023-02-02T01:38:40.157Z,18.88
2023-02-02T01:41:08.207Z,24.98
2023-02-02T01:43:55.996Z,18.75
2023-02-02T01:46:26.261Z,13.90
2023-02-02T01:48:59.422Z,20.23
2023-02-02T01:51:32.982Z,16.08
2023-02-02T01:54:02.083Z,19.52
2023-02-02T01:56:33.779Z,15.48
2023-02-02T01:59:04.402Z,19.42
2023-02-02T02:01:32.671Z,22.40
2023-02-02T02:04:00.655Z,18.77
2023-02-02T02:06:29.762Z,14.30
2023-02-02T02:09:03.311Z,18.40
2023-02-02T02:11:32.430Z,25.35
2023-02-02T02:14:22.249Z,25.58
2023-02-02T02:17:03.530Z,18.17
2023-02-02T02:20:42.400Z,20.60
2023-02-02T02:24:02.846Z,14.35
2023-02-02T02:26:52.678Z,12.88
2023-02-02T02:29:55.660Z,15.18
2023-02-02T02:32:31.764Z,15.65
2023-02-02T02:35:05.091Z,16.38
2023-02-02T02:37:42.101Z,12.00
2023-02-02T02:40:18.851Z,16.00
2023-02-02T02:42:50.596Z,11.95
2023-02-02T02:45:19.886Z,13.95
2023-02-02T02:47:51.090Z,9.77
2023-02-02T02:50:19.978Z,13.98
2023-02-02T02:52:50.374Z,16.65
2023-02-02T02:55:18.501Z,12.80
2023-02-02T02:57:56.724Z,15.20
2023-02-02T03:00:40.043Z,9.43
2023-02-02T03:03:17.398Z,12.25
2023-02-02T03:05:53.796Z,10.57
2023-02-02T03:08:25.940Z,16.88
2023-02-02T03:10:56.695Z,9.02
2023-02-02T03:13:25.372Z,7.72
2023-02-02T03:15:53.416Z,9.98
2023-02-02T03:18:26.292Z,8.90
2023-02-02T03:20:54.180Z,12.85
2023-02-02T03:23:22.211Z,13.15
2023-02-02T03:25:50.305Z,13.68
2023-02-02T03:28:18.995Z,17.60
2023-02-02T03:30:48.349Z,6.80
2023-02-02T03:33:17.382Z,14.80
2023-02-02T03:35:46.514Z,20.60
2023-02-02T03:38:14.273Z,15.25
2023-02-02T03:40:42.409Z,21.08
2023-02-02T03:43:10.471Z,13.95
2023-02-02T03:45:40.668Z,9.30
2023-02-02T03:48:08.762Z,10.52
2023-02-02T03:50:36.497Z,14.45
2023-02-02T03:53:05.966Z,14.13
2023-02-02T03:55:35.065Z,12.35
2023-02-02T03:58:02.759Z,13.30
2023-02-02T04:00:30.553Z,15.77
2023-02-02T04:02:58.415Z,16.90
2023-02-02T04:05:26.406Z,15.10
2023-02-02T04:07:54.489Z,15.90
2023-02-02T04:10:23.691Z,14.75
2023-02-02T04:12:51.526Z,17.10
2023-02-02T04:15:19.439Z,15.80
2023-02-02T04:17:47.238Z,12.75
2023-02-02T04:20:15.000Z,8.90
2023-02-02T04:22:42.732Z,14.65
2023-02-02T04:25:10.477Z,13.75
2023-02-02T04:27:39.508Z,10.73
2023-02-02T04:30:08.936Z,14.35
2023-02-02T04:32:36.732Z,9.30
2023-02-02T04:35:04.641Z,12.77
2023-02-02T04:37:32.601Z,13.90
2023-02-02T04:40:00.460Z,19.00
2023-02-02T04:42:28.220Z,9.55
2023-02-02T04:44:57.380Z,16.63
2023-02-02T04:47:25.548Z,17.63
2023-02-02T04:49:53.266Z,13.52
2023-02-02T04:52:21.123Z,10.73
2023-02-02T04:54:48.825Z,16.80
2023-02-02T04:57:17.629Z,14.88
2023-02-02T04:59:45.373Z,15.70
2023-02-02T05:02:14.436Z,13.05
2023-02-02T05:04:42.206Z,11.63
2023-02-02T05:07:10.210Z,8.63
2023-02-02T05:09:37.959Z,13.95
2023-02-02T05:12:06.245Z,8.32
2023-02-02T05:14:34.033Z,13.75
2023-02-02T05:17:01.842Z,11.18
2023-02-02T05:19:30.997Z,7.05
2023-02-02T05:21:58.724Z,11.90
2023-02-02T05:24:27.591Z,11.68
2023-02-02T05:26:58.676Z,12.75
2023-02-02T05:29:26.498Z,10.02
2023-02-02T05:31:54.597Z,9.52
2023-02-02T05:34:22.684Z,7.70
2023-02-02T05:36:51.828Z,6.22
2023-02-02T05:39:19.918Z,7.00
2023-02-02T05:41:47.700Z,9.60
2023-02-02T05:44:16.152Z,7.88
2023-02-02T05:46:45.224Z,9.10
2023-02-02T05:49:14.418Z,10.13
2023-02-02T05:51:45.854Z,4.40
2023-02-02T05:54:19.315Z,5.30
2023-02-02T05:56:47.588Z,5.63
2023-02-02T05:59:15.321Z,4.65
2023-02-02T06:01:43.213Z,4.40
2023-02-02T06:04:11.225Z,8.82
2023-02-02T06:06:39.849Z,10.10
2023-02-02T06:09:08.266Z,7.45
2023-02-02T06:11:39.398Z,7.57
2023-02-02T06:14:07.555Z,8.27
2023-02-02T06:16:35.412Z,6.88
2023-02-02T06:19:03.295Z,8.30
2023-02-02T06:21:31.942Z,8.07
2023-02-02T06:24:00.177Z,6.40
2023-02-02T06:26:28.011Z,7.22
2023-02-02T06:28:57.256Z,8.00
2023-02-02T06:31:25.651Z,6.78
2023-02-02T06:33:55.758Z,6.10
2023-02-02T06:36:25.037Z,7.68
2023-02-02T06:38:54.668Z,8.07
2023-02-02T06:41:23.177Z,5.68
2023-02-02T06:43:51.759Z,4.53
2023-02-02T06:46:20.925Z,9.60
2023-02-02T06:48:48.759Z,6.22
2023-02-02T06:51:16.648Z,7.07
2023-02-02T06:53:44.364Z,7.97
2023-02-02T06:56:14.026Z,5.85
2023-02-02T06:58:42.167Z,7.10
2023-02-02T07:01:12.025Z,10.98
2023-02-02T07:03:41.278Z,7.70
2023-02-02T07:06:13.798Z,9.88
2023-02-02T07:08:41.808Z,5.45
2023-02-02T07:11:15.809Z,7.85
2023-02-02T07:13:44.609Z,3.78
2023-02-02T07:16:13.833Z,5.85
2023-02-02T07:18:44.018Z,4.93
2023-02-02T07:21:18.577Z,8.80
2023-02-02T07:23:47.199Z,3.47
2023-02-02T07:26:18.149Z,5.00
2023-02-02T07:28:46.771Z,7.22
2023-02-02T07:31:16.667Z,8.82
2023-02-02T07:33:47.181Z,5.03
2023-02-02T07:36:17.272Z,4.30
2023-02-02T07:38:46.018Z,3.75
2023-02-02T07:41:14.960Z,8.55
2023-02-02T07:43:43.157Z,4.30
2023-02-02T07:46:12.831Z,6.60
2023-02-02T07:48:40.886Z,4.43
2023-02-02T07:51:12.923Z,6.95
2023-02-02T07:53:44.947Z,8.18
2023-02-02T07:56:14.840Z,2.00
2023-02-02T07:58:43.349Z,6.85
2023-02-02T08:01:12.915Z,5.28
2023-02-02T08:03:42.778Z,4.47
2023-02-02T08:06:15.386Z,7.82
2023-02-02T08:08:43.301Z,6.18
2023-02-02T08:11:13.133Z,3.25
2023-02-02T08:13:41.895Z,2.38
2023-02-02T08:16:10.660Z,5.55
2023-02-02T08:18:39.232Z,5.18
2023-02-02T08:21:09.414Z,7.88
2023-02-02T08:23:40.383Z,7.13
2023-02-02T08:26:10.540Z,3.15
2023-02-02T08:28:38.807Z,5.55
2023-02-02T08:31:08.438Z,3.25
2023-02-02T08:33:36.320Z,3.15
2023-02-02T08:36:04.958Z,5.47
2023-02-02T08:38:32.643Z,3.33
2023-02-02T08:41:06.946Z,4.10
2023-02-02T08:43:34.918Z,6.78
2023-02-02T08:46:05.515Z,3.13
2023-02-02T08:48:35.088Z,7.35
2023-02-02T08:51:04.470Z,6.75
2023-02-02T08:53:32.942Z,6.80
2023-02-02T08:56:01.614Z,5.70
2023-02-02T08:58:30.981Z,3.58
2023-02-02T09:01:05.902Z,5.75
2023-02-02T09:03:33.823Z,5.43
2023-02-02T09:06:05.626Z,6.97
2023-02-02T09:08:34.445Z,4.63
2023-02-02T09:11:07.167Z,5.03
2023-02-02T09:13:36.866Z,4.60
2023-02-02T09:16:06.572Z,4.47
2023-02-02T09:18:34.348Z,4.25
2023-02-02T09:21:03.482Z,4.70
2023-02-02T09:23:31.987Z,7.35
2023-02-02T09:26:10.043Z,6.18
2023-02-02T09:28:39.536Z,9.15
2023-02-02T09:31:08.131Z,5.93
2023-02-02T09:33:36.648Z,6.45
2023-02-02T09:36:06.317Z,4.03
2023-02-02T09:38:34.772Z,4.97
2023-02-02T09:41:02.806Z,6.47
2023-02-02T09:43:45.676Z,7.78
2023-02-02T09:46:21.644Z,4.25
2023-02-02T09:49:00.102Z,7.85
2023-02-02T09:51:33.661Z,7.80
2023-02-02T09:54:06.088Z,4.85
2023-02-02T09:56:39.094Z,6.57
2023-02-02T09:59:19.916Z,5.45
2023-02-02T10:01:53.838Z,5.80
2023-02-02T10:04:27.063Z,8.35
2023-02-02T10:06:57.918Z,7.15
2023-02-02T10:09:35.413Z,6.03
2023-02-02T10:12:13.106Z,5.78
2023-02-02T10:14:48.292Z,7.60
2023-02-02T10:17:33.069Z,4.13
2023-02-02T10:20:04.793Z,8.73
2023-02-02T10:22:35.149Z,9.57
2023-02-02T10:25:02.981Z,10.05
2023-02-02T10:27:38.234Z,7.53
2023-02-02T10:30:16.639Z,5.15
2023-02-02T10:32:50.702Z,4.97
2023-02-02T10:35:35.122Z,5.38
2023-02-02T10:38:10.443Z,6.80
2023-02-02T10:40:49.055Z,9.85
2023-02-02T10:43:49.122Z,3.92
2023-02-02T10:46:23.686Z,5.10
2023-02-02T10:48:52.850Z,5.82
2023-02-02T10:51:24.355Z,7.70
2023-02-02T10:53:55.749Z,6.65
2023-02-02T10:56:30.344Z,7.22
2023-02-02T10:59:06.810Z,9.20
2023-02-02T11:01:35.979Z,8.35
2023-02-02T11:04:21.740Z,7.75
2023-02-02T11:06:52.317Z,6.05
2023-02-02T11:09:23.411Z,7.07
2023-02-02T11:11:55.643Z,6.10
2023-02-02T11:14:37.147Z,5.97
2023-02-02T11:17:20.242Z,5.72
2023-02-02T11:19:49.786Z,8.10
2023-02-02T11:22:32.287Z,9.02
2023-02-02T11:25:02.198Z,7.78
2023-02-02T11:27:33.616Z,10.15
2023-02-02T11:30:22.310Z,7.53
2023-02-02T11:32:51.597Z,7.85
2023-02-02T11:35:22.298Z,8.55
2023-02-02T11:37:56.428Z,10.50
2023-02-02T11:40:36.415Z,10.82
2023-02-02T11:43:08.128Z,8.23
2023-02-02T11:45:39.061Z,8.30
2023-02-02T11:48:15.452Z,9.40
2023-02-02T11:50:47.633Z,8.93
2023-02-02T11:53:27.395Z,7.28
2023-02-02T11:55:57.416Z,12.25
2023-02-02T11:58:28.454Z,7.85
2023-02-02T12:00:59.876Z,10.95
2023-02-02T12:03:35.035Z,8.85
2023-02-02T12:06:19.658Z,9.00
2023-02-02T12:08:47.904Z,7.72
2023-02-02T12:11:30.348Z,11.98
2023-02-02T12:14:12.621Z,7.50
2023-02-02T12:16:58.433Z,8.05
2023-02-02T12:19:55.734Z,7.28
2023-02-02T12:22:42.057Z,9.30
2023-02-02T12:25:31.446Z,9.18
2023-02-02T12:28:06.241Z,10.15
2023-02-02T12:30:41.825Z,7.00
2023-02-02T12:33:24.338Z,6.23
2023-02-02T12:36:10.165Z,6.15
2023-02-02T12:38:55.165Z,7.40
2023-02-02T12:41:31.827Z,10.13
2023-02-02T12:44:06.439Z,8.65
2023-02-02T12:46:46.427Z,8.43
2023-02-02T12:49:40.893Z,6.75
2023-02-02T12:52:36.383Z,6.70
2023-02-02T12:55:18.881Z,8.73
2023-02-02T12:57:54.505Z,6.28
2023-02-02T13:01:03.645Z,9.13
2023-02-02T13:03:41.145Z,5.72
2023-02-02T13:06:44.169Z,8.57
2023-02-02T13:09:19.032Z,7.40
2023-02-02T13:11:50.799Z,8.02
2023-02-02T13:14:23.611Z,7.45
2023-02-02T13:16:55.377Z,6.82
2023-02-02T13:19:30.132Z,7.90
2023-02-02T13:22:00.129Z,5.35
2023-02-02T13:24:31.729Z,9.48
2023-02-02T13:27:02.873Z,10.10
2023-02-02T13:29:42.677Z,11.52
2023-02-02T13:32:23.312Z,9.52
2023-02-02T13:34:56.590Z,6.00
2023-02-02T13:37:32.115Z,9.60
2023-02-02T13:40:05.334Z,5.20
2023-02-02T13:42:42.014Z,6.00
2023-02-02T13:45:29.958Z,4.57
2023-02-02T13:48:06.697Z,7.38
2023-02-02T13:50:43.961Z,4.78
2023-02-02T13:53:36.003Z,9.10
2023-02-02T13:56:24.721Z,7.32
2023-02-02T13:59:06.327Z,6.97
2023-02-02T14:01:34.428Z,5.03
2023-02-02T14:04:02.359Z,5.30
2023-02-02T14:06:31.202Z,5.13
2023-02-02T14:09:01.164Z,5.10
2023-02-02T14:11:33.262Z,6.15
2023-02-02T14:14:26.971Z,3.97
2023-02-02T14:16:56.540Z,2.45
2023-02-02T14:19:52.616Z,5.25
2023-02-02T14:24:51.165Z,6.80
2023-02-02T14:27:55.973Z,5.50
2023-02-02T14:30:29.999Z,2.25
2023-02-02T14:33:26.324Z,6.30
2023-02-02T14:36:05.226Z,7.57
2023-02-02T14:38:59.994Z,4.50
2023-02-02T14:41:54.001Z,3.25
2023-02-02T14:44:23.994Z,7.38
2023-02-02T14:46:51.846Z,4.35
2023-02-02T14:49:25.611Z,6.72
2023-02-02T14:51:58.078Z,7.82
2023-02-02T14:54:31.481Z,7.75
2023-02-02T14:57:02.716Z,5.32
2023-02-02T14:59:36.055Z,6.50
2023-02-02T15:02:14.908Z,5.25
2023-02-02T15:04:43.352Z,5.22
2023-02-02T15:07:55.048Z,3.53
2023-02-02T15:11:29.498Z,6.45
2023-02-02T15:14:16.944Z,5.88
2023-02-02T15:16:47.413Z,6.80
2023-02-02T15:19:26.943Z,6.78
2023-02-02T15:21:58.368Z,8.43
2023-02-02T15:24:29.311Z,5.50
2023-02-02T15:27:02.940Z,5.50
2023-02-02T15:29:41.575Z,6.25
2023-02-02T15:32:17.763Z,7.32
2023-02-02T15:34:49.475Z,5.97
2023-02-02T15:37:21.504Z,6.18
2023-02-02T15:39:53.094Z,6.95
2023-02-02T15:42:55.293Z,8.65
2023-02-02T15:45:35.580Z,4.63
2023-02-02T15:48:10.098Z,5.45
2023-02-02T15:50:39.625Z,5.30
2023-02-02T15:53:07.559Z,5.20
2023-02-02T15:55:37.216Z,5.15
2023-02-02T15:58:25.751Z,6.15
2023-02-02T16:00:58.506Z,5.20
2023-02-02T16:03:34.989Z,6.50
2023-02-02T16:06:06.417Z,5.38
2023-02-02T16:08:36.249Z,5.15
2023-02-02T16:11:11.021Z,4.95
2023-02-02T16:13:40.646Z,4.72
2023-02-02T16:16:22.787Z,5.25
2023-02-02T16:19:05.655Z,4.70
2023-02-02T16:21:35.163Z,4.10
2023-02-02T16:24:05.620Z,5.53
2023-02-02T16:26:35.941Z,5.78
2023-02-02T16:29:04.080Z,4.05
2023-02-02T16:31:32.383Z,4.03
2023-02-02T16:34:02.373Z,4.53
2023-02-02T16:36:31.456Z,4.95
2023-02-02T16:39:01.072Z,5.68
2023-02-02T16:41:33.875Z,5.40
2023-02-02T16:44:30.051Z,5.18
2023-02-02T16:49:27.707Z,7.45
2023-02-02T16:52:22.261Z,7.53
2023-02-02T16:54:55.082Z,7.75
2023-02-02T16:57:25.366Z,7.38
2023-02-02T16:59:55.066Z,8.65
2023-02-02T17:02:30.312Z,10.38
2023-02-02T17:05:03.018Z,10.10
2023-02-02T17:07:34.219Z,7.53
2023-02-02T17:10:20.572Z,8.65
2023-02-02T17:15:35.120Z,7.07
2023-02-02T17:18:04.796Z,6.85
2023-02-02T17:20:34.396Z,7.70
2023-02-02T17:23:06.782Z,7.43
2023-02-02T17:25:38.015Z,7.55
2023-02-02T17:28:11.504Z,6.43
2023-02-02T17:30:41.818Z,5.82
2023-02-02T17:33:14.703Z,5.47
2023-02-02T17:35:53.795Z,7.03
2023-02-02T17:38:24.528Z,5.75
2023-02-02T17:40:53.296Z,8.50
2023-02-02T17:43:21.044Z,6.85
2023-02-02T17:45:49.203Z,6.03
2023-02-02T17:48:17.161Z,9.02
2023-02-02T17:50:45.537Z,8.60
2023-02-02T17:53:15.020Z,9.05
2023-02-02T17:55:46.077Z,9.18
2023-02-02T17:58:17.112Z,9.50
2023-02-02T18:00:46.458Z,10.27
2023-02-02T18:03:16.603Z,9.38
2023-02-02T18:05:44.436Z,8.85
2023-02-02T18:08:12.430Z,12.68
2023-02-02T18:10:40.791Z,11.25
2023-02-02T18:13:14.637Z,11.82
2023-02-02T18:15:42.555Z,10.27
2023-02-02T18:18:12.300Z,12.48
2023-02-02T18:20:42.512Z,11.60
2023-02-02T18:23:10.386Z,10.65
2023-02-02T18:25:39.417Z,11.50
2023-02-02T18:28:07.331Z,11.95
2023-02-02T18:30:38.880Z,11.18
2023-02-02T18:33:08.694Z,11.82
2023-02-02T18:35:36.497Z,11.55
2023-02-02T18:38:04.299Z,9.80
2023-02-02T18:40:32.035Z,9.68
2023-02-02T18:42:59.793Z,12.25
2023-02-02T18:45:27.858Z,10.30
2023-02-02T18:47:57.200Z,9.70
2023-02-02T18:50:25.040Z,10.18
2023-02-02T18:52:52.823Z,7.75
2023-02-02T18:55:20.600Z,11.10
2023-02-02T18:57:48.434Z,8.43
2023-02-02T19:00:16.802Z,8.82
2023-02-02T19:02:44.623Z,11.98
2023-02-02T19:05:31.692Z,11.30
2023-02-02T19:07:59.525Z,11.00
2023-02-02T19:10:28.026Z,10.45
2023-02-02T19:12:59.001Z,9.90
2023-02-02T19:15:27.265Z,14.52
2023-02-02T19:17:56.124Z,12.38
2023-02-02T19:20:29.953Z,14.38
2023-02-02T19:23:04.080Z,14.18
2023-02-02T19:25:31.909Z,11.63
2023-02-02T19:28:01.643Z,17.05
2023-02-02T19:30:29.495Z,13.55
2023-02-02T19:32:57.218Z,13.38
2023-02-02T19:35:27.560Z,14.63
2023-02-02T19:38:01.300Z,17.27
2023-02-02T19:40:29.276Z,15.63
2023-02-02T19:43:07.240Z,16.08
2023-02-02T19:45:36.230Z,19.50
2023-02-02T19:48:15.093Z,18.25
2023-02-02T19:50:43.345Z,19.55
2023-02-02T19:53:20.041Z,21.45
2023-02-02T19:55:48.579Z,16.63
2023-02-02T19:58:21.758Z,20.45
2023-02-02T20:00:52.032Z,16.70
2023-02-02T20:03:21.390Z,18.55
2023-02-02T20:05:50.688Z,17.27
2023-02-02T20:08:24.393Z,16.70
2023-02-02T20:10:52.636Z,17.65
2023-02-02T20:13:22.557Z,17.80
2023-02-02T20:15:52.097Z,16.77
2023-02-02T20:18:23.337Z,14.50
2023-02-02T20:20:53.977Z,16.10
2023-02-02T20:23:30.676Z,14.75
2023-02-02T20:25:58.877Z,13.93
2023-02-02T20:28:35.367Z,14.98
2023-02-02T20:31:05.436Z,13.23
2023-02-02T20:33:33.388Z,16.17
2023-02-02T20:36:03.055Z,17.17
2023-02-02T20:38:38.880Z,16.25
2023-02-02T20:41:06.861Z,14.07
2023-02-02T20:43:35.741Z,18.52
2023-02-02T20:46:03.778Z,17.10
2023-02-02T20:48:31.580Z,20.13
2023-02-02T20:50:59.329Z,21.95
2023-02-02T20:53:27.301Z,19.02
2023-02-02T20:55:58.231Z,20.00
2023-02-02T20:58:26.223Z,20.30
2023-02-02T21:00:54.809Z,24.38
2023-02-02T21:03:22.593Z,19.58
2023-02-02T21:05:50.292Z,20.65
2023-02-02T21:08:18.256Z,23.83
2023-02-02T21:10:45.993Z,22.38
2023-02-02T21:13:15.157Z,24.25
2023-02-02T21:15:42.891Z,26.52
2023-02-02T21:18:10.730Z,22.33
2023-02-02T21:20:38.498Z,25.30
2023-02-02T21:23:06.243Z,21.90
2023-02-02T21:25:34.043Z,26.17
2023-02-02T21:28:01.837Z,24.30
2023-02-02T21:30:31.325Z,32.92
2023-02-02T21:32:59.728Z,24.80
2023-02-02T21:35:27.663Z,28.33
2023-02-02T21:37:58.713Z,27.65
2023-02-02T21:40:29.771Z,29.02
2023-02-02T21:42:59.977Z,31.77
2023-02-02T21:45:37.249Z,23.98
2023-02-02T21:48:08.281Z,29.40
2023-02-02T21:50:38.053Z,29.98
2023-02-02T21:53:18.815Z,25.52
2023-02-02T21:55:47.863Z,30.98
2023-02-02T21:58:20.699Z,35.58
2023-02-02T22:00:50.187Z,32.13
2023-02-02T22:03:28.101Z,35.40
2023-02-02T22:06:03.113Z,36.92
2023-02-02T22:08:36.305Z,29.48
2023-02-02T22:11:04.305Z,34.75
2023-02-02T22:13:35.718Z,27.25
2023-02-02T22:16:05.226Z,34.00
2023-02-02T22:18:36.547Z,33.17
2023-02-02T22:21:07.286Z,35.03
2023-02-02T22:23:35.025Z,28.73
2023-02-02T22:26:02.718Z,30.10
2023-02-02T22:28:37.573Z,37.13
2023-02-02T22:31:06.912Z,35.35
2023-02-02T22:33:34.680Z,32.63
2023-02-02T22:36:02.924Z,36.50
2023-02-02T22:38:30.672Z,33.63
2023-02-02T22:40:58.457Z,32.00
2023-02-02T22:43:26.275Z,33.70
2023-02-02T22:45:54.056Z,30.05
2023-02-02T22:48:23.142Z,33.88
2023-02-02T22:50:50.888Z,33.67
2023-02-02T22:53:18.565Z,31.30
2023-02-02T22:55:46.304Z,36.13
2023-02-02T22:58:14.021Z,38.08
2023-02-02T23:00:41.820Z,34.85
2023-02-02T23:03:09.764Z,33.58
2023-02-02T23:05:38.881Z,33.65
2023-02-02T23:08:06.882Z,32.63
2023-02-02T23:10:35.890Z,34.20
2023-02-02T23:13:04.931Z,29.58
2023-02-02T23:15:33.027Z,32.72
2023-02-02T23:18:01.386Z,29.73
2023-02-02T23:20:29.296Z,32.55
2023-02-02T23:22:58.429Z,28.42
2023-02-02T23:25:26.458Z,25.38
2023-02-02T23:27:54.241Z,24.45
2023-02-02T23:30:24.498Z,25.75
2023-02-02T23:32:52.949Z,28.00
2023-02-02T23:35:21.536Z,30.67
2023-02-02T23:37:49.240Z,30.30
2023-02-02T23:40:18.611Z,30.55
2023-02-02T23:42:46.453Z,29.80
2023-02-02T23:45:16.279Z,24.63
2023-02-02T23:47:44.348Z,27.67
2023-02-02T23:50:13.326Z,25.83
2023-02-02T23:52:41.442Z,24.05
2023-02-02T23:55:10.363Z,28.08
2023-02-02T23:57:39.675Z,24.88
